PWSweather.com
Personal Weather Stations
Station Observations
KTXDECATUR
Wildwood, Decatur, TX 76234

WildwoodDecatur, TX 76234

Lat: 33.2634, Lon: -97.6651

Elevation: 800

Station Type: Davis Vantage Pro 2

http://weather.wildwoodnaturist.com

Latest ConditionsUpdated 3:45:01 PM CDT Monday, Sep 23, 2019
Currently Today's Max Today's Min Today's Average
Temperature 91.1°F32.8°C 91.6°F33.1°C 75.5°F24.2°C 80.9°F27.2°C
Dew Point 74.8°F23.8°C 77.3°F25.2°C 72.2°F22.3°C 74.1°F23.4°C
Winds 2.3 mph NW3.7 kmh NW 10.4 mph -16.7 kmh - - 3.3 mph 5.3 kmh
Wind Gusts 4.6 mph7.4 kmh 13.8 mph22.2 kmh - -
Humidity 59% 92% 59% 81%
Pressure 29.87 in1011.5 mb 29.98 in1015.2 mb 29.87 in1011.5 mb -
Precipitation - 0.03 in0.8 mm - -
Hour Temp Dew Point Humidity Winds Wind Gusts Pressure Precip Precip Rate Daily Precip Total
03:45 PM 91.1°F32.8°C 74.8°F23.8°C 59% 2.3 mph NW3.7 kmh NW 4.6 mph7.4 kmh 29.87 in1011.5 mb - 0.00 in0.0 mm 0.03 in0.8 mm
03:40 PM 91.2°F32.9°C 75.9°F24.4°C 61% 1.2 mph NNW1.9 kmh NNW 3.5 mph5.6 kmh 29.87 in1011.5 mb - 0.00 in0.0 mm 0.03 in0.8 mm
03:30 PM 91.6°F33.1°C 75.2°F24.0°C 59% 4.6 mph NW7.4 kmh NW 6.9 mph11.1 kmh 29.87 in1011.5 mb - 0.00 in0.0 mm 0.03 in0.8 mm
03:20 PM 91.0°F32.8°C 75.2°F24.0°C 60% 4.6 mph NNW7.4 kmh NNW 5.8 mph9.3 kmh 29.88 in1011.9 mb - 0.00 in0.0 mm 0.03 in0.8 mm
03:15 PM 90.7°F32.6°C 75.4°F24.1°C 61% 5.8 mph NNW9.3 kmh NNW 6.9 mph11.1 kmh 29.88 in1011.9 mb - 0.00 in0.0 mm 0.03 in0.8 mm
03:10 PM 91.0°F32.8°C 75.7°F24.3°C 61% 2.3 mph W3.7 kmh W 5.8 mph9.3 kmh 29.88 in1011.9 mb - 0.00 in0.0 mm 0.03 in0.8 mm
03:00 PM 90.5°F32.5°C 74.7°F23.7°C 60% 1.2 mph W1.9 kmh W 2.3 mph3.7 kmh 29.88 in1011.9 mb - 0.00 in0.0 mm 0.03 in0.8 mm
02:50 PM 91.1°F32.8°C 75.8°F24.3°C 61% 3.5 mph W5.6 kmh W 5.8 mph9.3 kmh 29.89 in1012.2 mb - 0.00 in0.0 mm 0.03 in0.8 mm
02:45 PM 91.1°F32.8°C 77.3°F25.2°C 64% 1.2 mph E1.9 kmh E 2.3 mph3.7 kmh 29.89 in1012.2 mb - 0.00 in0.0 mm 0.03 in0.8 mm
02:40 PM 90.9°F32.7°C 76.1°F24.5°C 62% 2.3 mph N3.7 kmh N 3.5 mph5.6 kmh 29.89 in1012.2 mb - 0.00 in0.0 mm 0.03 in0.8 mm
02:30 PM 90.3°F32.4°C 75.0°F23.9°C 61% 1.2 mph WNW1.9 kmh WNW 3.5 mph5.6 kmh 29.90 in1012.5 mb - 0.00 in0.0 mm 0.03 in0.8 mm
02:20 PM 90.9°F32.7°C 77.1°F25.1°C 64% 1.2 mph NNE1.9 kmh NNE 3.5 mph5.6 kmh 29.90 in1012.5 mb - 0.00 in0.0 mm 0.03 in0.8 mm
02:15 PM 89.5°F31.9°C 75.2°F24.0°C 63% 1.2 mph WSW1.9 kmh WSW 2.3 mph3.7 kmh 29.91 in1012.9 mb - 0.00 in0.0 mm 0.03 in0.8 mm
02:10 PM 89.7°F32.1°C 74.9°F23.8°C 62% 3.5 mph W5.6 kmh W 5.8 mph9.3 kmh 29.91 in1012.9 mb - 0.00 in0.0 mm 0.03 in0.8 mm
02:00 PM 89.8°F32.1°C 75.1°F23.9°C 62% 4.6 mph WSW7.4 kmh WSW 9.2 mph14.8 kmh 29.91 in1012.9 mb - 0.00 in0.0 mm 0.03 in0.8 mm
01:50 PM 89.8°F32.1°C 74.1°F23.4°C 60% 2.3 mph SW3.7 kmh SW 6.9 mph11.1 kmh 29.92 in1013.2 mb - 0.00 in0.0 mm 0.03 in0.8 mm
01:45 PM 90.4°F32.4°C 76.6°F24.8°C 64% 4.6 mph SW7.4 kmh SW 9.2 mph14.8 kmh 29.92 in1013.2 mb - 0.00 in0.0 mm 0.03 in0.8 mm
01:40 PM 89.5°F31.9°C 75.2°F24.0°C 63% 3.5 mph W5.6 kmh W 5.8 mph9.3 kmh 29.93 in1013.5 mb - 0.00 in0.0 mm 0.03 in0.8 mm
01:30 PM 89.4°F31.9°C 74.1°F23.4°C 61% 5.8 mph W9.3 kmh W 5.8 mph9.3 kmh 29.93 in1013.5 mb - 0.00 in0.0 mm 0.03 in0.8 mm
01:20 PM 88.7°F31.5°C 74.9°F23.8°C 64% 4.6 mph W7.4 kmh W 4.6 mph7.4 kmh 29.94 in1013.9 mb - 0.00 in0.0 mm 0.03 in0.8 mm
01:15 PM 89.4°F31.9°C 76.6°F24.8°C 66% 5.8 mph WSW9.3 kmh WSW 8.1 mph13.0 kmh 29.94 in1013.9 mb - 0.00 in0.0 mm 0.03 in0.8 mm
01:10 PM 88.5°F31.4°C 76.2°F24.6°C 67% 4.6 mph WSW7.4 kmh WSW 4.6 mph7.4 kmh 29.94 in1013.9 mb - 0.00 in0.0 mm 0.03 in0.8 mm
01:00 PM 88.2°F31.2°C 76.3°F24.6°C 68% 6.9 mph W11.1 kmh W 10.4 mph16.7 kmh 29.95 in1014.2 mb - 0.00 in0.0 mm 0.03 in0.8 mm
12:50 PM 88.3°F31.3°C 76.3°F24.6°C 68% 9.2 mph W14.8 kmh W 11.5 mph18.5 kmh 29.95 in1014.2 mb - 0.00 in0.0 mm 0.03 in0.8 mm
12:45 PM 88.6°F31.4°C 76.7°F24.8°C 68% 5.8 mph SW9.3 kmh SW 9.2 mph14.8 kmh 29.95 in1014.2 mb - 0.00 in0.0 mm 0.03 in0.8 mm
12:40 PM 87.6°F30.9°C 76.6°F24.8°C 70% 8.1 mph SW13.0 kmh SW 8.1 mph13.0 kmh 29.96 in1014.6 mb - 0.00 in0.0 mm 0.03 in0.8 mm
12:30 PM 87.3°F30.7°C 76.8°F24.9°C 71% 10.4 mph WSW16.7 kmh WSW 13.8 mph22.2 kmh 29.96 in1014.6 mb - 0.00 in0.0 mm 0.03 in0.8 mm
12:20 PM 86.3°F30.2°C 77.0°F25.0°C 74% 4.6 mph WSW7.4 kmh WSW 6.9 mph11.1 kmh 29.96 in1014.6 mb - 0.00 in0.0 mm 0.03 in0.8 mm
12:15 PM 85.6°F29.8°C 76.8°F24.9°C 75% 3.5 mph WSW5.6 kmh WSW 5.8 mph9.3 kmh 29.96 in1014.6 mb - 0.00 in0.0 mm 0.03 in0.8 mm
12:10 PM 85.5°F29.7°C 75.8°F24.3°C 73% 2.3 mph WSW3.7 kmh WSW 3.5 mph5.6 kmh 29.96 in1014.6 mb - 0.00 in0.0 mm 0.03 in0.8 mm
12:00 PM 85.7°F29.8°C 75.2°F24.0°C 71% 4.6 mph SSW7.4 kmh SSW 5.8 mph9.3 kmh 29.97 in1014.9 mb - 0.00 in0.0 mm 0.03 in0.8 mm
11:50 AM 85.2°F29.6°C 75.6°F24.2°C 73% 8.1 mph SW13.0 kmh SW 9.2 mph14.8 kmh 29.97 in1014.9 mb - 0.00 in0.0 mm 0.03 in0.8 mm
11:45 AM 84.8°F29.3°C 75.2°F24.0°C 73% 5.8 mph S9.3 kmh S 9.2 mph14.8 kmh 29.97 in1014.9 mb - 0.00 in0.0 mm 0.03 in0.8 mm
11:40 AM 84.5°F29.2°C 75.7°F24.3°C 75% 5.8 mph SSW9.3 kmh SSW 8.1 mph13.0 kmh 29.98 in1015.2 mb - 0.00 in0.0 mm 0.03 in0.8 mm
11:30 AM 83.7°F28.7°C 75.7°F24.3°C 77% 2.3 mph SSE3.7 kmh SSE 4.6 mph7.4 kmh 29.98 in1015.2 mb - 0.00 in0.0 mm 0.03 in0.8 mm
11:20 AM 83.0°F28.3°C 74.6°F23.7°C 76% 5.8 mph SW9.3 kmh SW 10.4 mph16.7 kmh 29.98 in1015.2 mb - 0.00 in0.0 mm 0.03 in0.8 mm
11:15 AM 82.6°F28.1°C 74.7°F23.7°C 77% 4.6 mph SW7.4 kmh SW 4.6 mph7.4 kmh 29.98 in1015.2 mb - 0.00 in0.0 mm 0.03 in0.8 mm
11:10 AM 82.7°F28.2°C 74.7°F23.7°C 77% 8.1 mph S13.0 kmh S 9.2 mph14.8 kmh 29.98 in1015.2 mb - 0.00 in0.0 mm 0.03 in0.8 mm
11:00 AM 82.4°F28.0°C 74.8°F23.8°C 78% 3.5 mph S5.6 kmh S 4.6 mph7.4 kmh 29.98 in1015.2 mb - 0.00 in0.0 mm 0.03 in0.8 mm
10:50 AM 82.1°F27.8°C 75.0°F23.9°C 79% 4.6 mph SSW7.4 kmh SSW 5.8 mph9.3 kmh 29.98 in1015.2 mb - 0.00 in0.0 mm 0.03 in0.8 mm
10:45 AM 82.3°F27.9°C 74.7°F23.7°C 78% 5.8 mph SSW9.3 kmh SSW 9.2 mph14.8 kmh 29.98 in1015.2 mb - 0.00 in0.0 mm 0.03 in0.8 mm
10:40 AM 82.4°F28.0°C 75.2°F24.0°C 79% 5.8 mph S9.3 kmh S 8.1 mph13.0 kmh 29.98 in1015.2 mb - 0.00 in0.0 mm 0.03 in0.8 mm
10:30 AM 81.6°F27.6°C 74.8°F23.8°C 80% 3.5 mph SSE5.6 kmh SSE 3.5 mph5.6 kmh 29.98 in1015.2 mb - 0.00 in0.0 mm 0.03 in0.8 mm
10:20 AM 81.8°F27.7°C 75.0°F23.9°C 80% 4.6 mph S7.4 kmh S 5.8 mph9.3 kmh 29.98 in1015.2 mb - 0.00 in0.0 mm 0.03 in0.8 mm
10:15 AM 81.0°F27.2°C 75.0°F23.9°C 82% 5.8 mph SSE9.3 kmh SSE 8.1 mph13.0 kmh 29.98 in1015.2 mb - 0.00 in0.0 mm 0.03 in0.8 mm
10:10 AM 80.5°F26.9°C 74.8°F23.8°C 83% 2.3 mph SSE3.7 kmh SSE 5.8 mph9.3 kmh 29.98 in1015.2 mb - 0.00 in0.0 mm 0.03 in0.8 mm
10:00 AM 79.3°F26.3°C 74.4°F23.6°C 85% 3.5 mph SSE5.6 kmh SSE 4.6 mph7.4 kmh 29.98 in1015.2 mb - 0.00 in0.0 mm 0.03 in0.8 mm
09:50 AM 78.9°F26.1°C 74.0°F23.3°C 85% 3.5 mph SSE5.6 kmh SSE 4.6 mph7.4 kmh 29.98 in1015.2 mb - 0.00 in0.0 mm 0.03 in0.8 mm
09:45 AM 78.9°F26.1°C 74.0°F23.3°C 85% 4.6 mph SSE7.4 kmh SSE 6.9 mph11.1 kmh 29.98 in1015.2 mb - 0.00 in0.0 mm 0.03 in0.8 mm
09:40 AM 78.8°F26.0°C 74.3°F23.5°C 86% 3.5 mph SSE5.6 kmh SSE 5.8 mph9.3 kmh 29.98 in1015.2 mb - 0.00 in0.0 mm 0.03 in0.8 mm
09:30 AM 79.6°F26.4°C 74.3°F23.5°C 84% 5.8 mph SSE9.3 kmh SSE 8.1 mph13.0 kmh 29.98 in1015.2 mb - 0.00 in0.0 mm 0.03 in0.8 mm
09:20 AM 80.3°F26.8°C 73.9°F23.3°C 81% 4.6 mph S7.4 kmh S 6.9 mph11.1 kmh 29.97 in1014.9 mb - 0.00 in0.0 mm 0.03 in0.8 mm
09:15 AM 80.7°F27.1°C 74.3°F23.5°C 81% 8.1 mph SSE13.0 kmh SSE 10.4 mph16.7 kmh 29.97 in1014.9 mb - 0.00 in0.0 mm 0.03 in0.8 mm
09:10 AM 80.4°F26.9°C 74.8°F23.8°C 83% 3.5 mph SE5.6 kmh SE 6.9 mph11.1 kmh 29.97 in1014.9 mb - 0.00 in0.0 mm 0.03 in0.8 mm
09:00 AM 79.4°F26.3°C 74.5°F23.6°C 85% 4.6 mph ESE7.4 kmh ESE 8.1 mph13.0 kmh 29.97 in1014.9 mb - 0.00 in0.0 mm 0.03 in0.8 mm
08:50 AM 79.1°F26.2°C 74.2°F23.4°C 85% 5.8 mph SE9.3 kmh SE 6.9 mph11.1 kmh 29.97 in1014.9 mb - 0.00 in0.0 mm 0.03 in0.8 mm
08:45 AM 78.9°F26.1°C 74.0°F23.3°C 85% 3.5 mph SE5.6 kmh SE 6.9 mph11.1 kmh 29.96 in1014.6 mb - 0.00 in0.0 mm 0.03 in0.8 mm
08:40 AM 78.6°F25.9°C 73.7°F23.2°C 85% 5.8 mph SSE9.3 kmh SSE 6.9 mph11.1 kmh 29.96 in1014.6 mb - 0.00 in0.0 mm 0.03 in0.8 mm
08:30 AM 78.3°F25.7°C 73.8°F23.2°C 86% 3.5 mph SE5.6 kmh SE 4.6 mph7.4 kmh 29.96 in1014.6 mb - 0.00 in0.0 mm 0.03 in0.8 mm
08:20 AM 77.9°F25.5°C 73.4°F23.0°C 86% 2.3 mph SE3.7 kmh SE 4.6 mph7.4 kmh 29.96 in1014.6 mb - 0.00 in0.0 mm 0.03 in0.8 mm
08:15 AM 77.7°F25.4°C 73.6°F23.1°C 87% 2.3 mph ESE3.7 kmh ESE 3.5 mph5.6 kmh 29.96 in1014.6 mb - 0.00 in0.0 mm 0.03 in0.8 mm
08:10 AM 77.6°F25.3°C 73.4°F23.0°C 87% 2.3 mph ESE3.7 kmh ESE 4.6 mph7.4 kmh 29.96 in1014.6 mb - 0.00 in0.0 mm 0.03 in0.8 mm
08:00 AM 77.5°F25.3°C 73.3°F22.9°C 87% 3.5 mph ESE5.6 kmh ESE 4.6 mph7.4 kmh 29.95 in1014.2 mb - 0.00 in0.0 mm 0.03 in0.8 mm
07:50 AM 77.3°F25.2°C 73.1°F22.8°C 87% 2.3 mph E3.7 kmh E 3.5 mph5.6 kmh 29.95 in1014.2 mb - 0.00 in0.0 mm 0.03 in0.8 mm
07:45 AM 77.2°F25.1°C 73.0°F22.8°C 87% 3.5 mph E5.6 kmh E 4.6 mph7.4 kmh 29.95 in1014.2 mb - 0.00 in0.0 mm 0.03 in0.8 mm
07:40 AM 77.1°F25.1°C 72.9°F22.7°C 87% 3.5 mph E5.6 kmh E 5.8 mph9.3 kmh 29.95 in1014.2 mb - 0.00 in0.0 mm 0.03 in0.8 mm
07:30 AM 77.0°F25.0°C 72.8°F22.7°C 87% 4.6 mph ESE7.4 kmh ESE 6.9 mph11.1 kmh 29.95 in1014.2 mb - 0.00 in0.0 mm 0.03 in0.8 mm
07:20 AM 77.0°F25.0°C 72.8°F22.7°C 87% 3.5 mph ESE5.6 kmh ESE 4.6 mph7.4 kmh 29.95 in1014.2 mb - 0.00 in0.0 mm 0.03 in0.8 mm
07:15 AM 77.0°F25.0°C 72.9°F22.7°C 87% 3.5 mph ESE5.6 kmh ESE 3.5 mph5.6 kmh 29.95 in1014.2 mb - 0.00 in0.0 mm 0.03 in0.8 mm
07:10 AM 77.0°F25.0°C 72.9°F22.7°C 87% 2.3 mph ESE3.7 kmh ESE 3.5 mph5.6 kmh 29.95 in1014.2 mb - 0.00 in0.0 mm 0.03 in0.8 mm
07:00 AM 77.0°F25.0°C 72.8°F22.7°C 87% 3.5 mph ESE5.6 kmh ESE 5.8 mph9.3 kmh 29.95 in1014.2 mb - 0.00 in0.0 mm 0.03 in0.8 mm
06:50 AM 76.9°F24.9°C 73.1°F22.8°C 88% 3.5 mph ESE5.6 kmh ESE 5.8 mph9.3 kmh 29.94 in1013.9 mb - 0.00 in0.0 mm 0.03 in0.8 mm
06:45 AM 76.8°F24.9°C 73.0°F22.8°C 88% 2.3 mph ESE3.7 kmh ESE 3.5 mph5.6 kmh 29.94 in1013.9 mb - 0.00 in0.0 mm 0.03 in0.8 mm
06:40 AM 76.8°F24.9°C 73.0°F22.8°C 88% 1.2 mph ESE1.9 kmh ESE 3.5 mph5.6 kmh 29.94 in1013.9 mb - 0.00 in0.0 mm 0.03 in0.8 mm
06:30 AM 76.7°F24.8°C 72.9°F22.7°C 88% 2.3 mph ESE3.7 kmh ESE 4.6 mph7.4 kmh 29.93 in1013.5 mb - 0.00 in0.0 mm 0.03 in0.8 mm
06:20 AM 76.9°F24.9°C 72.7°F22.6°C 87% 1.2 mph ESE1.9 kmh ESE 2.3 mph3.7 kmh 29.93 in1013.5 mb - 0.00 in0.0 mm 0.03 in0.8 mm
06:15 AM 76.9°F24.9°C 72.7°F22.6°C 87% 2.3 mph ESE3.7 kmh ESE 3.5 mph5.6 kmh 29.93 in1013.5 mb - 0.00 in0.0 mm 0.03 in0.8 mm
06:10 AM 76.9°F24.9°C 72.7°F22.6°C 87% 3.5 mph ESE5.6 kmh ESE 3.5 mph5.6 kmh 29.93 in1013.5 mb - 0.00 in0.0 mm 0.03 in0.8 mm
06:00 AM 76.8°F24.9°C 73.0°F22.8°C 88% 2.3 mph ESE3.7 kmh ESE 2.3 mph3.7 kmh 29.93 in1013.5 mb - 0.00 in0.0 mm 0.03 in0.8 mm
05:50 AM 76.8°F24.9°C 72.6°F22.6°C 87% 2.3 mph SE3.7 kmh SE 3.5 mph5.6 kmh 29.93 in1013.5 mb - 0.00 in0.0 mm 0.03 in0.8 mm
05:45 AM 76.8°F24.9°C 72.6°F22.6°C 87% 3.5 mph SE5.6 kmh SE 3.5 mph5.6 kmh 29.93 in1013.5 mb - 0.00 in0.0 mm 0.03 in0.8 mm
05:40 AM 76.9°F24.9°C 72.7°F22.6°C 87% 2.3 mph SE3.7 kmh SE 3.5 mph5.6 kmh 29.93 in1013.5 mb - 0.00 in0.0 mm 0.03 in0.8 mm
05:30 AM 76.8°F24.9°C 72.6°F22.6°C 87% 3.5 mph ESE5.6 kmh ESE 5.8 mph9.3 kmh 29.92 in1013.2 mb - 0.00 in0.0 mm 0.03 in0.8 mm
05:20 AM 76.7°F24.8°C 72.6°F22.6°C 87% 3.5 mph ESE5.6 kmh ESE 4.6 mph7.4 kmh 29.92 in1013.2 mb - 0.00 in0.0 mm 0.03 in0.8 mm
05:15 AM 76.7°F24.8°C 72.5°F22.5°C 87% 3.5 mph E5.6 kmh E 4.6 mph7.4 kmh 29.92 in1013.2 mb - 0.00 in0.0 mm 0.03 in0.8 mm
05:10 AM 76.6°F24.8°C 72.5°F22.5°C 87% 1.2 mph E1.9 kmh E 3.5 mph5.6 kmh 29.92 in1013.2 mb - 0.00 in0.0 mm 0.03 in0.8 mm
05:00 AM 76.5°F24.7°C 72.7°F22.6°C 88% 2.3 mph E3.7 kmh E 3.5 mph5.6 kmh 29.91 in1012.9 mb - 0.01 in0.3 mm 0.03 in0.8 mm
04:50 AM 76.3°F24.6°C 72.5°F22.5°C 88% 2.3 mph E3.7 kmh E 2.3 mph3.7 kmh 29.91 in1012.9 mb - 0.02 in0.5 mm 0.03 in0.8 mm
04:45 AM 76.2°F24.6°C 72.4°F22.4°C 88% 2.3 mph E3.7 kmh E 2.3 mph3.7 kmh 29.91 in1012.9 mb - 0.02 in0.5 mm 0.03 in0.8 mm
04:40 AM 75.9°F24.4°C 72.4°F22.4°C 89% 2.3 mph E3.7 kmh E 4.6 mph7.4 kmh 29.91 in1012.9 mb - 0.02 in0.5 mm 0.03 in0.8 mm
04:30 AM 75.5°F24.2°C 72.4°F22.4°C 90% 2.3 mph E3.7 kmh E 3.5 mph5.6 kmh 29.91 in1012.9 mb - 0.02 in0.5 mm 0.03 in0.8 mm
04:20 AM 75.6°F24.2°C 72.5°F22.5°C 90% 1.2 mph E1.9 kmh E 2.3 mph3.7 kmh 29.91 in1012.9 mb - 0.02 in0.5 mm 0.03 in0.8 mm
04:15 AM 75.7°F24.3°C 72.2°F22.3°C 89% 1.2 mph E1.9 kmh E 2.3 mph3.7 kmh 29.91 in1012.9 mb - 0.02 in0.5 mm 0.03 in0.8 mm
04:10 AM 76.0°F24.4°C 72.2°F22.3°C 88% 1.2 mph E1.9 kmh E 2.3 mph3.7 kmh 29.91 in1012.9 mb - 0.02 in0.5 mm 0.03 in0.8 mm
04:00 AM 76.8°F24.9°C 72.3°F22.4°C 86% 2.3 mph ESE3.7 kmh ESE 3.5 mph5.6 kmh 29.90 in1012.5 mb - 0.01 in0.3 mm 0.02 in0.5 mm
03:50 AM 77.1°F25.1°C 72.6°F22.6°C 86% 2.3 mph E3.7 kmh E 4.6 mph7.4 kmh 29.90 in1012.5 mb - 0.00 in0.0 mm 0.01 in0.3 mm
03:45 AM 76.9°F24.9°C 72.7°F22.6°C 87% 2.3 mph E3.7 kmh E 3.5 mph5.6 kmh 29.90 in1012.5 mb - 0.00 in0.0 mm 0.01 in0.3 mm
03:40 AM 76.9°F24.9°C 72.8°F22.7°C 87% 3.5 mph E5.6 kmh E 3.5 mph5.6 kmh 29.90 in1012.5 mb - 0.00 in0.0 mm 0.01 in0.3 mm
03:30 AM 77.1°F25.1°C 73.2°F22.9°C 88% 2.3 mph NE3.7 kmh NE 3.5 mph5.6 kmh 29.90 in1012.5 mb - 0.00 in0.0 mm 0.01 in0.3 mm
03:20 AM 76.8°F24.9°C 73.3°F22.9°C 89% 1.2 mph NNE1.9 kmh NNE 1.2 mph1.9 kmh 29.91 in1012.9 mb - 0.00 in0.0 mm 0.01 in0.3 mm
03:15 AM 76.9°F24.9°C 73.4°F23.0°C 89% 1.2 mph NNE1.9 kmh NNE 3.5 mph5.6 kmh 29.91 in1012.9 mb - 0.00 in0.0 mm 0.01 in0.3 mm
03:10 AM 76.9°F24.9°C 73.4°F23.0°C 89% 1.2 mph NNE1.9 kmh NNE 2.3 mph3.7 kmh 29.91 in1012.9 mb - 0.00 in0.0 mm 0.01 in0.3 mm
03:00 AM 77.3°F25.2°C 73.8°F23.2°C 89% 2.3 mph NNE3.7 kmh NNE 3.5 mph5.6 kmh 29.91 in1012.9 mb - 0.00 in0.0 mm 0.01 in0.3 mm
02:50 AM 77.2°F25.1°C 73.7°F23.2°C 89% 2.3 mph NNE3.7 kmh NNE 4.6 mph7.4 kmh 29.91 in1012.9 mb - 0.01 in0.3 mm 0.01 in0.3 mm
02:45 AM 77.1°F25.1°C 73.6°F23.1°C 89% 2.3 mph N3.7 kmh N 2.3 mph3.7 kmh 29.91 in1012.9 mb - 0.01 in0.3 mm 0.01 in0.3 mm
02:40 AM 77.0°F25.0°C 73.5°F23.1°C 89% 1.2 mph N1.9 kmh N 2.3 mph3.7 kmh 29.91 in1012.9 mb - 0.01 in0.3 mm 0.01 in0.3 mm
02:30 AM 77.0°F25.0°C 73.5°F23.1°C 89% 1.2 mph N1.9 kmh N 2.3 mph3.7 kmh 29.91 in1012.9 mb - 0.01 in0.3 mm 0.01 in0.3 mm
02:20 AM 77.1°F25.1°C 73.7°F23.2°C 89% 1.2 mph N1.9 kmh N 1.2 mph1.9 kmh 29.91 in1012.9 mb - 0.01 in0.3 mm 0.01 in0.3 mm
02:15 AM 77.2°F25.1°C 73.4°F23.0°C 88% Calm Calm -- 29.91 in1012.9 mb - 0.01 in0.3 mm 0.01 in0.3 mm
02:10 AM 77.5°F25.3°C 73.7°F23.2°C 88% Calm Calm -- 29.92 in1013.2 mb - 0.01 in0.3 mm 0.01 in0.3 mm
02:00 AM 77.4°F25.2°C 73.9°F23.3°C 89% 1.2 mph N1.9 kmh N 2.3 mph3.7 kmh 29.91 in1012.9 mb - 0.01 in0.3 mm 0.01 in0.3 mm
01:50 AM 77.2°F25.1°C 74.0°F23.3°C 90% 1.2 mph N1.9 kmh N 2.3 mph3.7 kmh 29.91 in1012.9 mb - 0.01 in0.3 mm 0.01 in0.3 mm
01:45 AM 77.0°F25.0°C 73.8°F23.2°C 90% 1.2 mph N1.9 kmh N 2.3 mph3.7 kmh 29.91 in1012.9 mb - 0.00 in0.0 mm 0.00 in0.0 mm
01:40 AM 76.9°F24.9°C 74.1°F23.4°C 91% 1.2 mph N1.9 kmh N 2.3 mph3.7 kmh 29.91 in1012.9 mb - 0.00 in0.0 mm 0.00 in0.0 mm
01:30 AM 77.2°F25.1°C 73.7°F23.2°C 89% 1.2 mph NW1.9 kmh NW 1.2 mph1.9 kmh 29.91 in1012.9 mb - 0.00 in0.0 mm 0.00 in0.0 mm
01:20 AM 77.9°F25.5°C 73.7°F23.2°C 87% Calm Calm -- 29.91 in1012.9 mb - 0.00 in0.0 mm 0.00 in0.0 mm
01:15 AM 77.8°F25.4°C 73.6°F23.1°C 87% Calm Calm 1.2 mph1.9 kmh 29.91 in1012.9 mb - 0.00 in0.0 mm 0.00 in0.0 mm
01:10 AM 77.5°F25.3°C 73.7°F23.2°C 88% 2.3 mph NW3.7 kmh NW 2.3 mph3.7 kmh 29.91 in1012.9 mb - 0.00 in0.0 mm 0.00 in0.0 mm
01:00 AM 77.9°F25.5°C 73.7°F23.2°C 87% 3.5 mph WSW5.6 kmh WSW 4.6 mph7.4 kmh 29.91 in1012.9 mb - 0.00 in0.0 mm 0.00 in0.0 mm
12:50 AM 77.2°F25.1°C 74.0°F23.3°C 90% 6.9 mph NW11.1 kmh NW 6.9 mph11.1 kmh 29.91 in1012.9 mb - 0.00 in0.0 mm 0.00 in0.0 mm
12:45 AM 77.5°F25.3°C 74.0°F23.3°C 89% 8.1 mph WNW13.0 kmh WNW 9.2 mph14.8 kmh 29.91 in1012.9 mb - 0.00 in0.0 mm 0.00 in0.0 mm
12:40 AM 77.3°F25.2°C 73.1°F22.8°C 87% Calm Calm 1.2 mph1.9 kmh 29.90 in1012.5 mb - 0.00 in0.0 mm 0.00 in0.0 mm
12:30 AM 76.8°F24.9°C 73.3°F22.9°C 89% 1.2 mph ENE1.9 kmh ENE 4.6 mph7.4 kmh 29.89 in1012.2 mb - 0.00 in0.0 mm 0.00 in0.0 mm
12:20 AM 76.5°F24.7°C 73.4°F23.0°C 90% 1.2 mph ENE1.9 kmh ENE 2.3 mph3.7 kmh 29.89 in1012.2 mb - 0.00 in0.0 mm 0.00 in0.0 mm
12:15 AM 76.5°F24.7°C 73.7°F23.2°C 91% 1.2 mph ENE1.9 kmh ENE 2.3 mph3.7 kmh 29.90 in1012.5 mb - 0.00 in0.0 mm 0.00 in0.0 mm
12:10 AM 76.4°F24.7°C 73.6°F23.1°C 91% 1.2 mph ENE1.9 kmh ENE 2.3 mph3.7 kmh 29.90 in1012.5 mb - 0.00 in0.0 mm 0.00 in0.0 mm
12:00 AM 76.2°F24.6°C 73.7°F23.2°C 92% Calm Calm 1.2 mph1.9 kmh 29.90 in1012.5 mb - 0.00 in0.0 mm 0.00 in0.0 mm